sensor_id;sensor_type;location;lat;lon;timestamp;temperature;humidity
12604;DHT22;6367;52.508;13.284;2023-10-08T00:02:27;15.60;99.90
12604;DHT22;6367;52.508;13.284;2023-10-08T00:04:53;15.70;99.90
12604;DHT22;6367;52.508;13.284;2023-10-08T00:07:23;15.70;99.90
12604;DHT22;6367;52.508;13.284;2023-10-08T00:09:53;15.70;99.90
12604;DHT22;6367;52.508;13.284;2023-10-08T00:12:19;15.70;99.90
12604;DHT22;6367;52.508;13.284;2023-10-08T00:14:47;15.60;99.90
12604;DHT22;6367;52.508;13.284;2023-10-08T00:17:15;15.60;99.90
12604;DHT22;6367;52.508;13.284;2023-10-08T00:19:42;15.70;99.90
12604;DHT22;6367;52.508;13.284;2023-10-08T00:22:09;15.60;99.90
12604;DHT22;6367;52.508;13.284;2023-10-08T00:24:36;15.60;99.90
12604;DHT22;6367;52.508;13.284;2023-10-08T00:27:03;15.70;99.90
12604;DHT22;6367;52.508;13.284;2023-10-08T00:29:32;15.70;99.90
12604;DHT22;6367;52.508;13.284;2023-10-08T00:31:58;15.60;99.90
12604;DHT22;6367;52.508;13.284;2023-10-08T00:34:24;15.60;99.90
12604;DHT22;6367;52.508;13.284;2023-10-08T00:36:50;15.60;99.90
12604;DHT22;6367;52.508;13.284;2023-10-08T00:39:18;15.60;99.90
12604;DHT22;6367;52.508;13.284;2023-10-08T00:41:59;15.60;99.90
12604;DHT22;6367;52.508;13.284;2023-10-08T00:44:24;15.60;99.90
12604;DHT22;6367;52.508;13.284;2023-10-08T00:46:56;15.50;99.90
12604;DHT22;6367;52.508;13.284;2023-10-08T00:49:27;15.50;99.90
12604;DHT22;6367;52.508;13.284;2023-10-08T00:52:06;15.60;99.90
12604;DHT22;6367;52.508;13.284;2023-10-08T00:54:34;15.60;99.90
12604;DHT22;6367;52.508;13.284;2023-10-08T00:57:13;15.60;99.90
12604;DHT22;6367;52.508;13.284;2023-10-08T00:59:46;15.60;99.90
12604;DHT22;6367;52.508;13.284;2023-10-08T01:02:19;15.50;99.90
12604;DHT22;6367;52.508;13.284;2023-10-08T01:04:46;15.50;99.90
12604;DHT22;6367;52.508;13.284;2023-10-08T01:07:13;15.50;99.90
12604;DHT22;6367;52.508;13.284;2023-10-08T01:09:44;15.60;99.90
12604;DHT22;6367;52.508;13.284;2023-10-08T01:12:20;15.60;99.90
12604;DHT22;6367;52.508;13.284;2023-10-08T01:14:56;15.60;99.90
12604;DHT22;6367;52.508;13.284;2023-10-08T01:17:32;15.50;99.90
12604;DHT22;6367;52.508;13.284;2023-10-08T01:20:08;15.50;99.90
12604;DHT22;6367;52.508;13.284;2023-10-08T01:22:52;15.40;99.90
12604;DHT22;6367;52.508;13.284;2023-10-08T01:25:18;15.20;99.90
12604;DHT22;6367;52.508;13.284;2023-10-08T01:27:54;15.50;99.90
12604;DHT22;6367;52.508;13.284;2023-10-08T01:30:20;15.50;99.90
12604;DHT22;6367;52.508;13.284;2023-10-08T01:32:46;15.50;99.90
12604;DHT22;6367;52.508;13.284;2023-10-08T01:35:12;15.50;99.90
12604;DHT22;6367;52.508;13.284;2023-10-08T01:37:50;15.40;99.90
12604;DHT22;6367;52.508;13.284;2023-10-08T01:40:19;15.50;99.90
12604;DHT22;6367;52.508;13.284;2023-10-08T01:42:44;15.60;99.90
12604;DHT22;6367;52.508;13.284;2023-10-08T01:45:11;15.50;99.90
12604;DHT22;6367;52.508;13.284;2023-10-08T01:47:39;15.50;99.90
12604;DHT22;6367;52.508;13.284;2023-10-08T01:50:05;15.50;99.90
12604;DHT22;6367;52.508;13.284;2023-10-08T01:52:37;15.50;99.90
12604;DHT22;6367;52.508;13.284;2023-10-08T01:55:06;15.50;99.90
12604;DHT22;6367;52.508;13.284;2023-10-08T01:57:35;15.50;99.90
12604;DHT22;6367;52.508;13.284;2023-10-08T02:00:05;15.50;99.90
12604;DHT22;6367;52.508;13.284;2023-10-08T02:02:32;15.50;99.90
12604;DHT22;6367;52.508;13.284;2023-10-08T02:04:59;15.50;99.90
12604;DHT22;6367;52.508;13.284;2023-10-08T02:07:25;15.50;99.90
12604;DHT22;6367;52.508;13.284;2023-10-08T02:09:50;15.50;99.90
12604;DHT22;6367;52.508;13.284;2023-10-08T02:12:16;15.50;99.90
12604;DHT22;6367;52.508;13.284;2023-10-08T02:14:42;15.50;99.90
12604;DHT22;6367;52.508;13.284;2023-10-08T02:17:07;15.50;99.90
12604;DHT22;6367;52.508;13.284;2023-10-08T02:19:35;15.60;99.90
12604;DHT22;6367;52.508;13.284;2023-10-08T02:22:03;15.60;99.90
12604;DHT22;6367;52.508;13.284;2023-10-08T02:24:35;15.60;99.90
12604;DHT22;6367;52.508;13.284;2023-10-08T02:27:01;15.50;99.90
12604;DHT22;6367;52.508;13.284;2023-10-08T02:29:29;15.50;99.90
12604;DHT22;6367;52.508;13.284;2023-10-08T02:31:58;15.40;99.90
12604;DHT22;6367;52.508;13.284;2023-10-08T02:34:24;15.40;99.90
12604;DHT22;6367;52.508;13.284;2023-10-08T02:36:50;15.40;99.90
12604;DHT22;6367;52.508;13.284;2023-10-08T02:39:16;15.50;99.90
12604;DHT22;6367;52.508;13.284;2023-10-08T02:41:48;15.50;99.90
12604;DHT22;6367;52.508;13.284;2023-10-08T02:44:15;15.50;99.90
12604;DHT22;6367;52.508;13.284;2023-10-08T02:46:42;15.60;99.90
12604;DHT22;6367;52.508;13.284;2023-10-08T02:49:11;15.50;99.90
12604;DHT22;6367;52.508;13.284;2023-10-08T02:51:39;15.50;99.90
12604;DHT22;6367;52.508;13.284;2023-10-08T02:54:07;15.30;99.90
12604;DHT22;6367;52.508;13.284;2023-10-08T02:56:34;15.30;99.90
12604;DHT22;6367;52.508;13.284;2023-10-08T02:58:59;15.40;99.90
12604;DHT22;6367;52.508;13.284;2023-10-08T03:01:29;15.40;99.90
12604;DHT22;6367;52.508;13.284;2023-10-08T03:03:59;15.30;99.90
12604;DHT22;6367;52.508;13.284;2023-10-08T03:06:29;15.30;99.90
12604;DHT22;6367;52.508;13.284;2023-10-08T03:08:58;15.40;99.90
12604;DHT22;6367;52.508;13.284;2023-10-08T03:11:29;15.40;99.90
12604;DHT22;6367;52.508;13.284;2023-10-08T03:13:57;15.40;99.90
12604;DHT22;6367;52.508;13.284;2023-10-08T03:16:22;15.60;99.90
12604;DHT22;6367;52.508;13.284;2023-10-08T03:18:54;15.30;99.90
12604;DHT22;6367;52.508;13.284;2023-10-08T03:21:22;15.30;99.90
12604;DHT22;6367;52.508;13.284;2023-10-08T03:24:08;15.40;99.90
12604;DHT22;6367;52.508;13.284;2023-10-08T03:26:54;15.40;99.90
12604;DHT22;6367;52.508;13.284;2023-10-08T03:29:31;15.30;99.90
12604;DHT22;6367;52.508;13.284;2023-10-08T03:31:57;15.30;99.90
12604;DHT22;6367;52.508;13.284;2023-10-08T03:34:23;14.60;99.90
12604;DHT22;6367;52.508;13.284;2023-10-08T03:36:53;15.40;99.90
12604;DHT22;6367;52.508;13.284;2023-10-08T03:39:25;15.30;99.90
12604;DHT22;6367;52.508;13.284;2023-10-08T03:42:11;15.80;99.90
12604;DHT22;6367;52.508;13.284;2023-10-08T03:44:39;15.40;99.90
12604;DHT22;6367;52.508;13.284;2023-10-08T03:47:08;15.40;99.90
12604;DHT22;6367;52.508;13.284;2023-10-08T03:49:36;15.30;99.90
12604;DHT22;6367;52.508;13.284;2023-10-08T03:52:10;15.30;99.90
12604;DHT22;6367;52.508;13.284;2023-10-08T03:54:36;15.40;99.90
12604;DHT22;6367;52.508;13.284;2023-10-08T03:57:08;15.40;99.90
12604;DHT22;6367;52.508;13.284;2023-10-08T03:59:44;15.40;99.90
12604;DHT22;6367;52.508;13.284;2023-10-08T04:02:13;15.40;99.90
12604;DHT22;6367;52.508;13.284;2023-10-08T04:04:43;15.40;99.90
12604;DHT22;6367;52.508;13.284;2023-10-08T04:07:23;15.30;99.90
12604;DHT22;6367;52.508;13.284;2023-10-08T04:09:58;15.30;99.90
12604;DHT22;6367;52.508;13.284;2023-10-08T04:12:33;15.30;99.90
12604;DHT22;6367;52.508;13.284;2023-10-08T04:15:04;15.30;99.90
12604;DHT22;6367;52.508;13.284;2023-10-08T04:17:36;15.40;99.90
12604;DHT22;6367;52.508;13.284;2023-10-08T04:20:13;15.30;99.90
12604;DHT22;6367;52.508;13.284;2023-10-08T04:23:03;15.30;99.90
12604;DHT22;6367;52.508;13.284;2023-10-08T04:25:31;15.40;99.90
12604;DHT22;6367;52.508;13.284;2023-10-08T04:28:00;15.30;99.90
12604;DHT22;6367;52.508;13.284;2023-10-08T04:30:28;15.30;99.90
12604;DHT22;6367;52.508;13.284;2023-10-08T04:33:04;15.30;99.90
12604;DHT22;6367;52.508;13.284;2023-10-08T04:35:43;15.30;99.90
12604;DHT22;6367;52.508;13.284;2023-10-08T04:38:24;15.30;99.90
12604;DHT22;6367;52.508;13.284;2023-10-08T04:40:54;15.30;99.90
12604;DHT22;6367;52.508;13.284;2023-10-08T04:43:21;15.10;99.90
12604;DHT22;6367;52.508;13.284;2023-10-08T04:46:02;15.10;99.90
12604;DHT22;6367;52.508;13.284;2023-10-08T04:48:47;15.20;99.90
12604;DHT22;6367;52.508;13.284;2023-10-08T04:51:15;15.30;99.90
12604;DHT22;6367;52.508;13.284;2023-10-08T04:53:40;15.20;99.90
12604;DHT22;6367;52.508;13.284;2023-10-08T04:56:11;15.20;99.90
12604;DHT22;6367;52.508;13.284;2023-10-08T04:58:44;15.20;99.90
12604;DHT22;6367;52.508;13.284;2023-10-08T05:01:17;15.10;99.90
12604;DHT22;6367;52.508;13.284;2023-10-08T05:03:44;15.10;99.90
12604;DHT22;6367;52.508;13.284;2023-10-08T05:06:22;15.20;99.90
12604;DHT22;6367;52.508;13.284;2023-10-08T05:09:10;15.10;99.90
12604;DHT22;6367;52.508;13.284;2023-10-08T05:11:46;15.10;99.90
12604;DHT22;6367;52.508;13.284;2023-10-08T05:14:32;15.00;99.90
12604;DHT22;6367;52.508;13.284;2023-10-08T05:17:02;14.90;99.90
12604;DHT22;6367;52.508;13.284;2023-10-08T05:19:37;14.80;99.90
12604;DHT22;6367;52.508;13.284;2023-10-08T05:22:08;14.90;99.90
12604;DHT22;6367;52.508;13.284;2023-10-08T05:24:47;15.00;99.90
12604;DHT22;6367;52.508;13.284;2023-10-08T05:27:36;15.00;99.90
12604;DHT22;6367;52.508;13.284;2023-10-08T05:30:14;14.80;99.90
12604;DHT22;6367;52.508;13.284;2023-10-08T05:32:57;14.80;99.90
12604;DHT22;6367;52.508;13.284;2023-10-08T05:35:28;14.90;99.90
12604;DHT22;6367;52.508;13.284;2023-10-08T05:38:07;14.90;99.90
12604;DHT22;6367;52.508;13.284;2023-10-08T05:40:44;14.80;99.90
12604;DHT22;6367;52.508;13.284;2023-10-08T05:43:27;14.80;99.90
12604;DHT22;6367;52.508;13.284;2023-10-08T05:46:15;14.70;99.90
12604;DHT22;6367;52.508;13.284;2023-10-08T05:49:04;14.80;99.90
12604;DHT22;6367;52.508;13.284;2023-10-08T05:51:37;14.90;99.90
12604;DHT22;6367;52.508;13.284;2023-10-08T05:54:22;14.90;99.90
12604;DHT22;6367;52.508;13.284;2023-10-08T05:57:08;14.90;99.90
12604;DHT22;6367;52.508;13.284;2023-10-08T05:59:44;14.70;99.90
12604;DHT22;6367;52.508;13.284;2023-10-08T06:02:32;14.60;99.90
12604;DHT22;6367;52.508;13.284;2023-10-08T06:04:59;14.70;99.90
12604;DHT22;6367;52.508;13.284;2023-10-08T06:07:48;14.80;99.90
12604;DHT22;6367;52.508;13.284;2023-10-08T06:10:32;14.80;99.90
12604;DHT22;6367;52.508;13.284;2023-10-08T06:12:58;14.80;99.90
12604;DHT22;6367;52.508;13.284;2023-10-08T06:15:50;14.90;99.90
12604;DHT22;6367;52.508;13.284;2023-10-08T06:18:27;14.90;99.90
12604;DHT22;6367;52.508;13.284;2023-10-08T06:20:53;15.00;99.90
12604;DHT22;6367;52.508;13.284;2023-10-08T06:23:24;15.00;99.90
12604;DHT22;6367;52.508;13.284;2023-10-08T06:25:52;15.00;99.90
12604;DHT22;6367;52.508;13.284;2023-10-08T06:28:44;15.10;99.90
12604;DHT22;6367;52.508;13.284;2023-10-08T06:31:10;15.00;99.90
12604;DHT22;6367;52.508;13.284;2023-10-08T06:33:43;15.00;99.90
12604;DHT22;6367;52.508;13.284;2023-10-08T06:36:10;15.00;99.90
12604;DHT22;6367;52.508;13.284;2023-10-08T06:38:36;15.00;99.90
12604;DHT22;6367;52.508;13.284;2023-10-08T06:41:04;15.00;99.90
12604;DHT22;6367;52.508;13.284;2023-10-08T06:43:56;15.00;99.90
12604;DHT22;6367;52.508;13.284;2023-10-08T06:46:29;15.10;99.90
12604;DHT22;6367;52.508;13.284;2023-10-08T06:48:59;15.10;99.90
12604;DHT22;6367;52.508;13.284;2023-10-08T06:51:24;15.10;99.90
12604;DHT22;6367;52.508;13.284;2023-10-08T06:53:51;15.10;99.90
12604;DHT22;6367;52.508;13.284;2023-10-08T06:56:17;15.30;99.90
12604;DHT22;6367;52.508;13.284;2023-10-08T06:58:45;15.30;99.90
12604;DHT22;6367;52.508;13.284;2023-10-08T07:01:21;15.30;99.90
12604;DHT22;6367;52.508;13.284;2023-10-08T07:03:53;15.30;99.90
12604;DHT22;6367;52.508;13.284;2023-10-08T07:06:22;15.20;99.90
12604;DHT22;6367;52.508;13.284;2023-10-08T07:08:58;15.30;99.90
12604;DHT22;6367;52.508;13.284;2023-10-08T07:11:25;15.30;99.90
12604;DHT22;6367;52.508;13.284;2023-10-08T07:13:54;15.40;99.90
12604;DHT22;6367;52.508;13.284;2023-10-08T07:16:21;15.40;99.90
12604;DHT22;6367;52.508;13.284;2023-10-08T07:18:47;15.40;99.90
12604;DHT22;6367;52.508;13.284;2023-10-08T07:21:21;15.40;99.90
12604;DHT22;6367;52.508;13.284;2023-10-08T07:23:55;15.40;99.90
12604;DHT22;6367;52.508;13.284;2023-10-08T07:26:30;15.50;99.90
12604;DHT22;6367;52.508;13.284;2023-10-08T07:29:02;15.30;99.90
12604;DHT22;6367;52.508;13.284;2023-10-08T07:31:35;15.60;99.90
12604;DHT22;6367;52.508;13.284;2023-10-08T07:34:02;15.60;99.90
12604;DHT22;6367;52.508;13.284;2023-10-08T07:36:45;15.70;99.90
12604;DHT22;6367;52.508;13.284;2023-10-08T07:39:19;15.80;99.90
12604;DHT22;6367;52.508;13.284;2023-10-08T07:42:07;15.70;99.90
12604;DHT22;6367;52.508;13.284;2023-10-08T07:44:34;15.70;99.90
12604;DHT22;6367;52.508;13.284;2023-10-08T07:47:01;15.70;99.90
12604;DHT22;6367;52.508;13.284;2023-10-08T07:49:31;15.70;99.90
12604;DHT22;6367;52.508;13.284;2023-10-08T07:51:57;15.70;99.90
12604;DHT22;6367;52.508;13.284;2023-10-08T07:54:25;15.70;99.90
12604;DHT22;6367;52.508;13.284;2023-10-08T07:56:54;15.70;99.90
12604;DHT22;6367;52.508;13.284;2023-10-08T07:59:34;15.80;99.90
12604;DHT22;6367;52.508;13.284;2023-10-08T08:02:06;15.90;99.90
12604;DHT22;6367;52.508;13.284;2023-10-08T08:04:36;15.90;99.90
12604;DHT22;6367;52.508;13.284;2023-10-08T08:07:02;15.80;99.90
12604;DHT22;6367;52.508;13.284;2023-10-08T08:09:30;15.90;99.90
12604;DHT22;6367;52.508;13.284;2023-10-08T08:11:55;15.90;99.90
12604;DHT22;6367;52.508;13.284;2023-10-08T08:14:23;16.00;99.90
12604;DHT22;6367;52.508;13.284;2023-10-08T08:16:51;16.10;99.90
12604;DHT22;6367;52.508;13.284;2023-10-08T08:19:17;16.00;99.90
12604;DHT22;6367;52.508;13.284;2023-10-08T08:21:49;16.00;99.90
12604;DHT22;6367;52.508;13.284;2023-10-08T08:24:17;16.20;99.90
12604;DHT22;6367;52.508;13.284;2023-10-08T08:26:55;16.10;99.90
12604;DHT22;6367;52.508;13.284;2023-10-08T08:29:33;16.20;99.90
12604;DHT22;6367;52.508;13.284;2023-10-08T08:32:10;16.30;99.90
12604;DHT22;6367;52.508;13.284;2023-10-08T08:34:38;16.20;99.90
12604;DHT22;6367;52.508;13.284;2023-10-08T08:37:12;16.20;99.90
12604;DHT22;6367;52.508;13.284;2023-10-08T08:39:38;16.40;99.90
12604;DHT22;6367;52.508;13.284;2023-10-08T08:42:04;16.50;99.90
12604;DHT22;6367;52.508;13.284;2023-10-08T08:44:32;16.60;99.90
12604;DHT22;6367;52.508;13.284;2023-10-08T08:46:59;16.70;99.90
12604;DHT22;6367;52.508;13.284;2023-10-08T08:49:32;16.80;99.90
12604;DHT22;6367;52.508;13.284;2023-10-08T08:52:03;16.70;99.90
12604;DHT22;6367;52.508;13.284;2023-10-08T08:54:29;16.80;99.90
12604;DHT22;6367;52.508;13.284;2023-10-08T08:57:00;16.90;99.90
12604;DHT22;6367;52.508;13.284;2023-10-08T08:59:30;17.00;99.90
12604;DHT22;6367;52.508;13.284;2023-10-08T09:02:00;17.10;99.90
12604;DHT22;6367;52.508;13.284;2023-10-08T09:04:30;17.20;99.90
12604;DHT22;6367;52.508;13.284;2023-10-08T09:06:56;17.30;99.90
12604;DHT22;6367;52.508;13.284;2023-10-08T09:09:31;17.40;99.90
12604;DHT22;6367;52.508;13.284;2023-10-08T09:11:57;17.40;99.90
12604;DHT22;6367;52.508;13.284;2023-10-08T09:14:24;17.40;99.90
12604;DHT22;6367;52.508;13.284;2023-10-08T09:16:57;17.40;99.90
12604;DHT22;6367;52.508;13.284;2023-10-08T09:19:25;17.50;99.90
12604;DHT22;6367;52.508;13.284;2023-10-08T09:22:03;17.50;99.90
12604;DHT22;6367;52.508;13.284;2023-10-08T09:24:34;17.50;99.90
12604;DHT22;6367;52.508;13.284;2023-10-08T09:27:03;17.50;99.90
12604;DHT22;6367;52.508;13.284;2023-10-08T09:29:29;17.60;99.90
12604;DHT22;6367;52.508;13.284;2023-10-08T09:31:59;17.60;99.90
12604;DHT22;6367;52.508;13.284;2023-10-08T09:34:29;17.60;99.90
12604;DHT22;6367;52.508;13.284;2023-10-08T09:36:59;17.70;99.90
12604;DHT22;6367;52.508;13.284;2023-10-08T09:39:30;17.70;99.90
12604;DHT22;6367;52.508;13.284;2023-10-08T09:42:00;17.80;99.90
12604;DHT22;6367;52.508;13.284;2023-10-08T09:44:28;17.80;99.90
12604;DHT22;6367;52.508;13.284;2023-10-08T09:47:07;17.80;99.90
12604;DHT22;6367;52.508;13.284;2023-10-08T09:49:40;17.80;99.90
12604;DHT22;6367;52.508;13.284;2023-10-08T09:52:09;17.80;98.90
12604;DHT22;6367;52.508;13.284;2023-10-08T09:54:53;17.90;98.60
12604;DHT22;6367;52.508;13.284;2023-10-08T09:57:22;17.90;97.50
12604;DHT22;6367;52.508;13.284;2023-10-08T09:59:51;17.80;97.20
12604;DHT22;6367;52.508;13.284;2023-10-08T10:02:18;17.70;97.70
12604;DHT22;6367;52.508;13.284;2023-10-08T10:04:50;17.80;97.10
12604;DHT22;6367;52.508;13.284;2023-10-08T10:07:19;17.70;97.30
12604;DHT22;6367;52.508;13.284;2023-10-08T10:09:49;17.70;96.70
12604;DHT22;6367;52.508;13.284;2023-10-08T10:12:26;16.90;96.00
12604;DHT22;6367;52.508;13.284;2023-10-08T10:14:55;17.80;96.20
12604;DHT22;6367;52.508;13.284;2023-10-08T10:17:25;17.90;94.60
12604;DHT22;6367;52.508;13.284;2023-10-08T10:20:00;17.70;94.00
12604;DHT22;6367;52.508;13.284;2023-10-08T10:22:31;17.70;95.00
12604;DHT22;6367;52.508;13.284;2023-10-08T10:24:59;17.80;95.30
12604;DHT22;6367;52.508;13.284;2023-10-08T10:27:29;17.80;95.40
12604;DHT22;6367;52.508;13.284;2023-10-08T10:30:04;17.90;95.20
12604;DHT22;6367;52.508;13.284;2023-10-08T10:32:34;17.90;93.50
12604;DHT22;6367;52.508;13.284;2023-10-08T10:35:00;17.90;92.50
12604;DHT22;6367;52.508;13.284;2023-10-08T10:37:29;18.00;93.50
12604;DHT22;6367;52.508;13.284;2023-10-08T10:40:07;18.10;92.80
12604;DHT22;6367;52.508;13.284;2023-10-08T10:42:36;18.10;92.80
12604;DHT22;6367;52.508;13.284;2023-10-08T10:45:15;18.10;92.70
12604;DHT22;6367;52.508;13.284;2023-10-08T10:47:59;18.20;92.90
12604;DHT22;6367;52.508;13.284;2023-10-08T10:50:39;18.20;92.90
12604;DHT22;6367;52.508;13.284;2023-10-08T10:53:17;18.20;92.80
12604;DHT22;6367;52.508;13.284;2023-10-08T10:55:43;18.20;92.90
12604;DHT22;6367;52.508;13.284;2023-10-08T10:58:24;18.20;92.70
12604;DHT22;6367;52.508;13.284;2023-10-08T11:00:50;18.40;91.50
12604;DHT22;6367;52.508;13.284;2023-10-08T11:03:26;18.50;90.50
12604;DHT22;6367;52.508;13.284;2023-10-08T11:05:58;18.50;91.10
12604;DHT22;6367;52.508;13.284;2023-10-08T11:08:26;18.50;89.30
12604;DHT22;6367;52.508;13.284;2023-10-08T11:10:57;18.40;90.60
12604;DHT22;6367;52.508;13.284;2023-10-08T11:13:24;18.40;90.40
12604;DHT22;6367;52.508;13.284;2023-10-08T11:15:54;18.00;90.20
12604;DHT22;6367;52.508;13.284;2023-10-08T11:18:24;18.60;90.60
12604;DHT22;6367;52.508;13.284;2023-10-08T11:20:51;18.70;90.10
12604;DHT22;6367;52.508;13.284;2023-10-08T11:23:33;18.70;90.30
12604;DHT22;6367;52.508;13.284;2023-10-08T11:26:01;18.70;91.20
12604;DHT22;6367;52.508;13.284;2023-10-08T11:28:38;18.70;91.90
12604;DHT22;6367;52.508;13.284;2023-10-08T11:31:11;18.90;91.10
12604;DHT22;6367;52.508;13.284;2023-10-08T11:33:44;19.00;91.30
12604;DHT22;6367;52.508;13.284;2023-10-08T11:36:23;19.10;90.80
12604;DHT22;6367;52.508;13.284;2023-10-08T11:38:56;19.10;90.60
12604;DHT22;6367;52.508;13.284;2023-10-08T11:41:32;19.20;89.00
12604;DHT22;6367;52.508;13.284;2023-10-08T11:44:15;19.30;89.20
12604;DHT22;6367;52.508;13.284;2023-10-08T11:46:45;19.40;89.60
12604;DHT22;6367;52.508;13.284;2023-10-08T11:49:11;19.40;90.20
12604;DHT22;6367;52.508;13.284;2023-10-08T11:51:46;19.50;90.80
12604;DHT22;6367;52.508;13.284;2023-10-08T11:54:12;19.60;90.00
12604;DHT22;6367;52.508;13.284;2023-10-08T11:56:40;19.70;88.70
12604;DHT22;6367;52.508;13.284;2023-10-08T11:59:06;19.70;85.40
12604;DHT22;6367;52.508;13.284;2023-10-08T12:01:35;19.80;87.40
12604;DHT22;6367;52.508;13.284;2023-10-08T12:04:01;19.80;87.30
12604;DHT22;6367;52.508;13.284;2023-10-08T12:06:27;19.90;85.80
12604;DHT22;6367;52.508;13.284;2023-10-08T12:08:59;19.90;86.90
12604;DHT22;6367;52.508;13.284;2023-10-08T12:11:25;19.80;87.40
12604;DHT22;6367;52.508;13.284;2023-10-08T12:13:57;19.80;87.00
12604;DHT22;6367;52.508;13.284;2023-10-08T12:16:25;19.80;86.70
12604;DHT22;6367;52.508;13.284;2023-10-08T12:18:55;19.80;84.80
12604;DHT22;6367;52.508;13.284;2023-10-08T12:21:28;19.80;85.70
12604;DHT22;6367;52.508;13.284;2023-10-08T12:24:00;19.90;84.90
12604;DHT22;6367;52.508;13.284;2023-10-08T12:26:30;19.80;85.00
12604;DHT22;6367;52.508;13.284;2023-10-08T12:28:57;19.80;86.00
12604;DHT22;6367;52.508;13.284;2023-10-08T12:31:23;19.70;84.70
12604;DHT22;6367;52.508;13.284;2023-10-08T12:33:53;19.70;86.40
12604;DHT22;6367;52.508;13.284;2023-10-08T12:36:26;19.70;86.50
12604;DHT22;6367;52.508;13.284;2023-10-08T12:38:58;19.60;86.60
12604;DHT22;6367;52.508;13.284;2023-10-08T12:41:27;19.60;85.10
12604;DHT22;6367;52.508;13.284;2023-10-08T12:43:53;19.60;86.80
12604;DHT22;6367;52.508;13.284;2023-10-08T12:46:20;19.60;86.80
12604;DHT22;6367;52.508;13.284;2023-10-08T12:48:53;19.60;87.10
12604;DHT22;6367;52.508;13.284;2023-10-08T12:51:24;19.70;86.60
12604;DHT22;6367;52.508;13.284;2023-10-08T12:53:53;19.70;86.10
12604;DHT22;6367;52.508;13.284;2023-10-08T12:56:31;19.60;85.90
12604;DHT22;6367;52.508;13.284;2023-10-08T12:59:00;19.60;86.60
12604;DHT22;6367;52.508;13.284;2023-10-08T13:01:30;19.70;85.50
12604;DHT22;6367;52.508;13.284;2023-10-08T13:03:56;19.60;86.40
12604;DHT22;6367;52.508;13.284;2023-10-08T13:06:33;19.60;83.70
12604;DHT22;6367;52.508;13.284;2023-10-08T13:09:02;19.60;85.50
12604;DHT22;6367;52.508;13.284;2023-10-08T13:11:34;19.60;85.30
12604;DHT22;6367;52.508;13.284;2023-10-08T13:14:00;19.60;85.10
12604;DHT22;6367;52.508;13.284;2023-10-08T13:16:27;19.60;85.10
12604;DHT22;6367;52.508;13.284;2023-10-08T13:19:03;19.50;85.60
12604;DHT22;6367;52.508;13.284;2023-10-08T13:21:28;19.50;85.20
12604;DHT22;6367;52.508;13.284;2023-10-08T13:23:57;19.50;84.70
12604;DHT22;6367;52.508;13.284;2023-10-08T13:26:29;19.40;85.10
12604;DHT22;6367;52.508;13.284;2023-10-08T13:28:58;19.40;84.40
12604;DHT22;6367;52.508;13.284;2023-10-08T13:31:24;19.30;84.50
12604;DHT22;6367;52.508;13.284;2023-10-08T13:33:50;19.30;84.20
12604;DHT22;6367;52.508;13.284;2023-10-08T13:36:18;19.30;83.60
12604;DHT22;6367;52.508;13.284;2023-10-08T13:38:44;19.20;84.30
12604;DHT22;6367;52.508;13.284;2023-10-08T13:41:12;19.20;84.50
12604;DHT22;6367;52.508;13.284;2023-10-08T13:43:50;19.00;84.50
12604;DHT22;6367;52.508;13.284;2023-10-08T13:46:25;19.00;84.40
12604;DHT22;6367;52.508;13.284;2023-10-08T13:48:50;19.10;83.10
12604;DHT22;6367;52.508;13.284;2023-10-08T13:51:18;18.90;81.10
12604;DHT22;6367;52.508;13.284;2023-10-08T13:53:55;18.90;81.90
12604;DHT22;6367;52.508;13.284;2023-10-08T13:56:29;18.80;82.10
12604;DHT22;6367;52.508;13.284;2023-10-08T13:58:58;18.80;82.40
12604;DHT22;6367;52.508;13.284;2023-10-08T14:01:41;18.80;83.60
12604;DHT22;6367;52.508;13.284;2023-10-08T14:04:11;18.80;81.90
12604;DHT22;6367;52.508;13.284;2023-10-08T14:06:38;18.80;80.70
12604;DHT22;6367;52.508;13.284;2023-10-08T14:09:08;18.70;81.90
12604;DHT22;6367;52.508;13.284;2023-10-08T14:11:34;18.70;81.90
12604;DHT22;6367;52.508;13.284;2023-10-08T14:14:01;18.70;82.00
12604;DHT22;6367;52.508;13.284;2023-10-08T14:16:39;18.70;81.50
12604;DHT22;6367;52.508;13.284;2023-10-08T14:19:09;18.70;82.10
12604;DHT22;6367;52.508;13.284;2023-10-08T14:21:38;18.70;82.70
12604;DHT22;6367;52.508;13.284;2023-10-08T14:24:15;18.70;82.60
12604;DHT22;6367;52.508;13.284;2023-10-08T14:26:41;18.70;82.60
12604;DHT22;6367;52.508;13.284;2023-10-08T14:29:08;18.70;81.70
12604;DHT22;6367;52.508;13.284;2023-10-08T14:31:40;18.60;81.00
12604;DHT22;6367;52.508;13.284;2023-10-08T14:34:07;18.60;82.40
12604;DHT22;6367;52.508;13.284;2023-10-08T14:36:49;18.60;82.00
12604;DHT22;6367;52.508;13.284;2023-10-08T14:39:34;18.60;81.90
12604;DHT22;6367;52.508;13.284;2023-10-08T14:42:19;18.60;81.50
12604;DHT22;6367;52.508;13.284;2023-10-08T14:45:04;18.60;82.00
12604;DHT22;6367;52.508;13.284;2023-10-08T14:47:39;18.50;82.20
12604;DHT22;6367;52.508;13.284;2023-10-08T14:50:06;18.50;82.30
12604;DHT22;6367;52.508;13.284;2023-10-08T14:52:42;18.50;82.30
12604;DHT22;6367;52.508;13.284;2023-10-08T14:55:08;18.50;82.50
12604;DHT22;6367;52.508;13.284;2023-10-08T14:57:33;18.40;83.20
12604;DHT22;6367;52.508;13.284;2023-10-08T14:59:59;18.80;83.00
12604;DHT22;6367;52.508;13.284;2023-10-08T15:02:25;18.30;82.90
12604;DHT22;6367;52.508;13.284;2023-10-08T15:04:54;18.30;82.80
12604;DHT22;6367;52.508;13.284;2023-10-08T15:07:22;18.30;83.30
12604;DHT22;6367;52.508;13.284;2023-10-08T15:09:48;18.20;84.00
12604;DHT22;6367;52.508;13.284;2023-10-08T15:12:15;18.20;84.30
12604;DHT22;6367;52.508;13.284;2023-10-08T15:14:43;18.20;84.60
12604;DHT22;6367;52.508;13.284;2023-10-08T15:17:08;18.20;85.00
12604;DHT22;6367;52.508;13.284;2023-10-08T15:19:35;18.20;85.30
12604;DHT22;6367;52.508;13.284;2023-10-08T15:22:01;18.10;85.20
12604;DHT22;6367;52.508;13.284;2023-10-08T15:24:28;18.10;85.30
12604;DHT22;6367;52.508;13.284;2023-10-08T15:26:55;18.10;84.60
12604;DHT22;6367;52.508;13.284;2023-10-08T15:29:21;18.10;85.10
12604;DHT22;6367;52.508;13.284;2023-10-08T15:31:54;18.00;85.50
12604;DHT22;6367;52.508;13.284;2023-10-08T15:34:23;18.00;85.70
12604;DHT22;6367;52.508;13.284;2023-10-08T15:36:50;18.00;85.40
12604;DHT22;6367;52.508;13.284;2023-10-08T15:39:17;18.00;85.30
12604;DHT22;6367;52.508;13.284;2023-10-08T15:41:50;18.00;84.80
12604;DHT22;6367;52.508;13.284;2023-10-08T15:44:19;18.00;85.20
12604;DHT22;6367;52.508;13.284;2023-10-08T15:46:49;18.00;85.10
12604;DHT22;6367;52.508;13.284;2023-10-08T15:49:15;18.00;85.40
12604;DHT22;6367;52.508;13.284;2023-10-08T15:51:41;17.90;85.70
12604;DHT22;6367;52.508;13.284;2023-10-08T15:54:07;18.00;85.60
12604;DHT22;6367;52.508;13.284;2023-10-08T15:56:33;17.90;85.90